Time;durP1;ratioP1;P1;durP2;ratioP2;P2;SDS_P1;SDS_P2;PMS_P1;PMS_P2;Temp;Humidity;BMP_temperature;BMP_pressure;BME280_temperature;BME280_humidity;BME280_pressure;Samples;Min_cycle;Max_cycle;Signal;HPM_P1;HPM_P2
2024/03/13 00:02:05;;;;;;;0.20;0.20;;;;;;;;;;5079907;28;20387;-85
2024/03/13 00:04:41;;;;;;;0.20;0.20;;;;;;;;;;5113519;28;20043;-84
2024/03/13 00:07:10;;;;;;;0.22;0.22;;;;;;;;;;5098153;28;20094;-85
2024/03/13 00:09:53;;;;;;;1.15;0.38;;;;;;;;;;5079793;28;20083;-85
2024/03/13 00:12:19;;;;;;;0.20;0.20;;;;;;;;;;5081728;28;20455;-85
2024/03/13 00:14:49;;;;;;;0.10;0.10;;;;;;;;;;5096431;28;20048;-85
2024/03/13 00:17:19;;;;;;;0.20;0.20;;;;;;;;;;5096393;28;20131;-84
2024/03/13 00:19:46;;;;;;;0.10;0.10;;;;;;;;;;5113275;28;20555;-85
2024/03/13 00:22:14;;;;;;;0.10;0.10;;;;;;;;;;5096306;28;20075;-85
2024/03/13 00:24:40;;;;;;;0.40;0.40;;;;;;;;;;5079336;28;20070;-86
2024/03/13 00:27:06;;;;;;;1.92;0.20;;;;;;;;;;5096268;28;20391;-85
2024/03/13 00:29:32;;;;;;;0.55;0.30;;;;;;;;;;5096112;28;20043;-85
2024/03/13 00:31:59;;;;;;;0.50;0.50;;;;;;;;;;5112865;28;20040;-85
2024/03/13 00:34:25;;;;;;;0.40;0.40;;;;;;;;;;5079231;28;20475;-84
2024/03/13 00:36:54;;;;;;;0.35;0.35;;;;;;;;;;5079194;28;20036;-85
2024/03/13 00:39:22;;;;;;;0.45;0.45;;;;;;;;;;5079314;28;20490;-84
2024/03/13 00:41:48;;;;;;;0.52;0.40;;;;;;;;;;5079278;28;20043;-84
2024/03/13 00:44:14;;;;;;;0.20;0.20;;;;;;;;;;5079290;28;20308;-85
2024/03/13 00:46:40;;;;;;;0.40;0.40;;;;;;;;;;5095767;28;20051;-85
2024/03/13 00:49:09;;;;;;;0.25;0.25;;;;;;;;;;5095892;28;20054;-84
2024/03/13 00:51:35;;;;;;;1.20;1.00;;;;;;;;;;5095573;28;20130;-85
2024/03/13 00:54:04;;;;;;;0.10;0.10;;;;;;;;;;5095364;28;20467;-85
2024/03/13 00:56:32;;;;;;;2.90;0.52;;;;;;;;;;5095428;28;20040;-85
2024/03/13 00:58:58;;;;;;;0.35;0.35;;;;;;;;;;5095713;28;20036;-85
2024/03/13 01:01:24;;;;;;;1.38;0.52;;;;;;;;;;5078409;28;20047;-86
2024/03/13 01:03:51;;;;;;;0.30;0.30;;;;;;;;;;5078452;28;20039;-85
2024/03/13 01:06:17;;;;;;;0.45;0.45;;;;;;;;;;5078446;28;20039;-86
2024/03/13 01:08:44;;;;;;;0.30;0.30;;;;;;;;;;5078614;28;20050;-86
2024/03/13 01:11:11;;;;;;;1.10;0.50;;;;;;;;;;5078694;28;20051;-86
2024/03/13 01:13:37;;;;;;;0.35;0.35;;;;;;;;;;5078460;28;20083;-85
2024/03/13 01:16:07;;;;;;;0.47;0.47;;;;;;;;;;5078184;28;20047;-85
2024/03/13 01:18:34;;;;;;;0.17;0.17;;;;;;;;;;5079159;28;20094;-85
2024/03/13 01:21:00;;;;;;;1.33;0.43;;;;;;;;;;5077807;28;20444;-86
2024/03/13 01:23:29;;;;;;;0.60;0.60;;;;;;;;;;5111921;28;20089;-85
2024/03/13 01:25:59;;;;;;;0.35;0.35;;;;;;;;;;5078142;28;20070;-85
2024/03/13 01:28:25;;;;;;;4.03;0.63;;;;;;;;;;5095428;28;20035;-85
2024/03/13 01:30:51;;;;;;;2.90;0.90;;;;;;;;;;5077997;28;20078;-85
2024/03/13 01:33:17;;;;;;;0.40;0.40;;;;;;;;;;5077944;28;20040;-85
2024/03/13 01:35:43;;;;;;;0.50;0.50;;;;;;;;;;5094876;28;20044;-85
2024/03/13 01:38:09;;;;;;;0.28;0.28;;;;;;;;;;5111986;28;20043;-87
2024/03/13 01:57:13;;;;;;;1.05;1.05;;;;;;;;;;5097198;28;20092;-86
2024/03/13 01:59:49;;;;;;;1.20;0.38;;;;;;;;;;5078148;28;20435;-86
2024/03/13 02:02:22;;;;;;;0.63;0.63;;;;;;;;;;5078909;28;20456;-87
2024/03/13 02:04:48;;;;;;;1.80;0.70;;;;;;;;;;5111262;28;20052;-86
2024/03/13 02:07:18;;;;;;;8.45;0.75;;;;;;;;;;5077644;28;20055;-87
2024/03/13 02:09:44;;;;;;;2.60;0.40;;;;;;;;;;5077962;28;20043;-86
2024/03/13 02:12:11;;;;;;;0.45;0.45;;;;;;;;;;5077837;28;20039;-86
2024/03/13 02:14:37;;;;;;;0.20;0.20;;;;;;;;;;5077693;28;20096;-86
2024/03/13 02:17:06;;;;;;;0.10;0.10;;;;;;;;;;5077379;28;20044;-86
2024/03/13 02:19:32;;;;;;;0.47;0.47;;;;;;;;;;5094618;28;20042;-87
2024/03/13 02:22:07;;;;;;;0.20;0.20;;;;;;;;;;5077704;28;20036;-86
2024/03/13 02:24:33;;;;;;;0.17;0.17;;;;;;;;;;5078431;28;20075;-86
2024/03/13 02:27:03;;;;;;;0.57;0.45;;;;;;;;;;5094237;28;20088;-86
2024/03/13 02:29:29;;;;;;;0.10;0.10;;;;;;;;;;5094147;28;20044;-85
2024/03/13 02:31:55;;;;;;;0.30;0.30;;;;;;;;;;5078306;28;20122;-86
2024/03/13 02:34:21;;;;;;;0.22;0.20;;;;;;;;;;5098252;28;20126;-85
2024/03/13 02:36:47;;;;;;;0.28;0.28;;;;;;;;;;5081492;28;20046;-86
2024/03/13 02:39:18;;;;;;;0.10;0.10;;;;;;;;;;5098386;28;20054;-86
2024/03/13 02:41:44;;;;;;;0.10;0.10;;;;;;;;;;5082065;28;20131;-85
2024/03/13 02:44:10;;;;;;;0.20;0.15;;;;;;;;;;5081262;28;20035;-86
2024/03/13 02:46:36;;;;;;;0.10;0.10;;;;;;;;;;5097990;28;20112;-86
2024/03/13 02:49:02;;;;;;;0.10;0.10;;;;;;;;;;5081366;28;20047;-85
2024/03/13 02:51:29;;;;;;;0.10;0.10;;;;;;;;;;5097930;28;20562;-87
2024/03/13 02:53:55;;;;;;;0.20;0.20;;;;;;;;;;5097875;28;20040;-86
2024/03/13 02:56:20;;;;;;;0.20;0.20;;;;;;;;;;5080908;28;20031;-86
2024/03/13 02:58:48;;;;;;;0.20;0.20;;;;;;;;;;5081244;28;20040;-87
2024/03/13 03:01:14;;;;;;;1.00;0.32;;;;;;;;;;5098419;28;20039;-86
2024/03/13 03:03:41;;;;;;;0.32;0.30;;;;;;;;;;5080681;28;20047;-86
2024/03/13 03:06:07;;;;;;;0.20;0.20;;;;;;;;;;5097755;28;20048;-86
2024/03/13 03:08:33;;;;;;;0.52;0.40;;;;;;;;;;5098061;28;20454;-86
2024/03/13 03:11:03;;;;;;;0.88;0.88;;;;;;;;;;5080686;28;20088;-86
2024/03/13 03:13:33;;;;;;;0.10;0.10;;;;;;;;;;5081252;28;20078;-87
2024/03/13 03:15:59;;;;;;;0.25;0.25;;;;;;;;;;5080511;28;20039;-86
2024/03/13 03:18:26;;;;;;;0.10;0.10;;;;;;;;;;5080951;28;20045;-86
2024/03/13 03:20:52;;;;;;;0.20;0.20;;;;;;;;;;5097430;28;20040;-86
2024/03/13 03:23:18;;;;;;;0.17;0.17;;;;;;;;;;5114294;28;20550;-86
2024/03/13 03:25:44;;;;;;;0.10;0.10;;;;;;;;;;5097425;28;20046;-86
2024/03/13 03:28:13;;;;;;;0.35;0.28;;;;;;;;;;5097328;28;20089;-86
2024/03/13 03:30:43;;;;;;;0.10;0.10;;;;;;;;;;5081023;28;20104;-86
2024/03/13 03:33:21;;;;;;;4.78;0.80;;;;;;;;;;5097703;28;20035;-86
2024/03/13 03:35:47;;;;;;;0.10;0.10;;;;;;;;;;5098739;28;20075;-86
2024/03/13 03:38:13;;;;;;;0.10;0.10;;;;;;;;;;5080343;28;20040;-87
2024/03/13 03:40:40;;;;;;;0.10;0.10;;;;;;;;;;5080422;28;20031;-86
2024/03/13 03:43:08;;;;;;;0.10;0.10;;;;;;;;;;5079986;27;20089;-87
2024/03/13 03:45:35;;;;;;;0.20;0.20;;;;;;;;;;5096947;28;20492;-86
2024/03/13 03:48:01;;;;;;;0.40;0.40;;;;;;;;;;5080595;28;20036;-86
2024/03/13 03:50:27;;;;;;;0.30;0.30;;;;;;;;;;5096928;28;20482;-87
2024/03/13 03:52:53;;;;;;;0.80;0.22;;;;;;;;;;5096909;28;20082;-87
2024/03/13 03:55:19;;;;;;;0.20;0.20;;;;;;;;;;5080075;28;20502;-87
2024/03/13 03:57:45;;;;;;;0.20;0.20;;;;;;;;;;5096892;28;20509;-86
2024/03/13 04:00:12;;;;;;;0.10;0.10;;;;;;;;;;5080157;28;20431;-87
2024/03/13 04:02:38;;;;;;;0.35;0.35;;;;;;;;;;5079966;28;20048;-87
2024/03/13 04:05:08;;;;;;;0.50;0.50;;;;;;;;;;5079838;28;20155;-85
2024/03/13 04:07:35;;;;;;;0.60;0.60;;;;;;;;;;5097422;28;20454;-86
2024/03/13 04:10:03;;;;;;;0.32;0.32;;;;;;;;;;5113330;28;20079;-86
2024/03/13 04:12:29;;;;;;;0.10;0.10;;;;;;;;;;5079749;28;20040;-85
2024/03/13 04:14:55;;;;;;;0.20;0.20;;;;;;;;;;5096379;28;20130;-85
2024/03/13 04:17:22;;;;;;;0.80;0.73;;;;;;;;;;5096414;28;20050;-86
2024/03/13 04:19:48;;;;;;;0.20;0.20;;;;;;;;;;5096597;28;20046;-85
2024/03/13 04:22:15;;;;;;;8.20;0.63;;;;;;;;;;5096183;28;20039;-85
2024/03/13 04:24:41;;;;;;;0.68;0.68;;;;;;;;;;5096348;28;20042;-86
2024/03/13 04:27:08;;;;;;;0.20;0.20;;;;;;;;;;5096489;28;20332;-86
2024/03/13 04:29:34;;;;;;;0.30;0.30;;;;;;;;;;5096050;28;20053;-86
2024/03/13 04:32:00;;;;;;;0.43;0.38;;;;;;;;;;5095917;28;20126;-86
2024/03/13 04:34:26;;;;;;;0.63;0.63;;;;;;;;;;5079190;28;20055;-85
2024/03/13 04:36:54;;;;;;;0.73;0.73;;;;;;;;;;5079204;28;20039;-85
2024/03/13 04:39:20;;;;;;;0.63;0.63;;;;;;;;;;5079398;28;20038;-85
2024/03/13 04:41:46;;;;;;;0.43;0.43;;;;;;;;;;5079242;28;20054;-85
2024/03/13 04:44:12;;;;;;;0.50;0.50;;;;;;;;;;5095685;28;20114;-86
2024/03/13 04:46:39;;;;;;;0.15;0.15;;;;;;;;;;5078818;28;20108;-86
2024/03/13 04:49:05;;;;;;;0.10;0.10;;;;;;;;;;5095688;28;20054;-86
2024/03/13 04:51:31;;;;;;;0.10;0.10;;;;;;;;;;5095743;28;20475;-86
2024/03/13 04:53:57;;;;;;;0.10;0.10;;;;;;;;;;5078999;28;20513;-87
2024/03/13 04:56:23;;;;;;;0.52;0.50;;;;;;;;;;5111698;28;20167;-86
2024/03/13 04:58:49;;;;;;;0.10;0.10;;;;;;;;;;5078799;28;20046;-85
2024/03/13 05:01:18;;;;;;;0.10;0.10;;;;;;;;;;5078757;28;20123;-85
2024/03/13 05:03:45;;;;;;;0.63;0.63;;;;;;;;;;5078327;28;20097;-86
2024/03/13 05:06:11;;;;;;;0.10;0.10;;;;;;;;;;5095661;28;20360;-85
2024/03/13 05:08:37;;;;;;;0.10;0.10;;;;;;;;;;5095375;28;20491;-85
2024/03/13 05:11:04;;;;;;;0.10;0.10;;;;;;;;;;5078632;28;20420;-86
2024/03/13 05:13:30;;;;;;;0.10;0.10;;;;;;;;;;5112396;28;20062;-85
2024/03/13 05:15:57;;;;;;;0.10;0.10;;;;;;;;;;5078448;28;20278;-85
2024/03/13 05:18:23;;;;;;;0.10;0.10;;;;;;;;;;5095386;28;20100;-85
2024/03/13 05:20:49;;;;;;;0.15;0.15;;;;;;;;;;5078306;28;20051;-86
2024/03/13 05:23:15;;;;;;;0.30;0.30;;;;;;;;;;5095110;28;20471;-85
2024/03/13 05:25:41;;;;;;;0.30;0.30;;;;;;;;;;5094970;28;20161;-86
2024/03/13 05:28:08;;;;;;;0.63;0.43;;;;;;;;;;5095210;28;20043;-85
2024/03/13 05:30:34;;;;;;;0.30;0.30;;;;;;;;;;5094902;28;20088;-86
2024/03/13 05:33:00;;;;;;;1.33;0.68;;;;;;;;;;5077742;28;20456;-86
2024/03/13 05:35:26;;;;;;;0.10;0.10;;;;;;;;;;5078075;28;20039;-86
2024/03/13 05:37:52;;;;;;;1.02;0.20;;;;;;;;;;5078176;28;20096;-86
2024/03/13 05:40:19;;;;;;;0.80;0.80;;;;;;;;;;5095048;28;20116;-86
2024/03/13 05:42:46;;;;;;;0.10;0.10;;;;;;;;;;5078076;28;20036;-85
2024/03/13 05:45:15;;;;;;;0.10;0.10;;;;;;;;;;5094833;28;20105;-85
2024/03/13 05:47:41;;;;;;;0.10;0.10;;;;;;;;;;5095069;28;20050;-85
2024/03/13 05:50:08;;;;;;;0.10;0.10;;;;;;;;;;5094587;28;20065;-87
2024/03/13 05:52:34;;;;;;;0.10;0.10;;;;;;;;;;5095093;28;20047;-86
2024/03/13 05:55:01;;;;;;;0.80;0.40;;;;;;;;;;5111455;28;20050;-87
2024/03/13 05:57:27;;;;;;;0.30;0.30;;;;;;;;;;5094739;28;20040;-86
2024/03/13 05:59:53;;;;;;;0.10;0.10;;;;;;;;;;5094815;28;20376;-86
2024/03/13 06:02:19;;;;;;;0.17;0.17;;;;;;;;;;5077450;28;20518;-86
2024/03/13 06:04:45;;;;;;;0.63;0.35;;;;;;;;;;5077749;28;20054;-86
2024/03/13 06:07:12;;;;;;;0.10;0.10;;;;;;;;;;5077393;28;20479;-87
2024/03/13 06:09:38;;;;;;;0.28;0.28;;;;;;;;;;5077645;28;20092;-88
2024/03/13 06:12:04;;;;;;;0.10;0.10;;;;;;;;;;5094632;28;20460;-88
2024/03/13 06:14:30;;;;;;;0.10;0.10;;;;;;;;;;5077884;28;20102;-87
2024/03/13 06:16:56;;;;;;;0.20;0.20;;;;;;;;;;5094678;28;20403;-87
2024/03/13 06:19:22;;;;;;;0.10;0.10;;;;;;;;;;5077847;28;20036;-90
2024/03/13 06:21:49;;;;;;;0.10;0.10;;;;;;;;;;5078242;28;20102;-87
2024/03/13 06:24:20;;;;;;;0.45;0.45;;;;;;;;;;5094311;28;20082;-87
2024/03/13 06:26:48;;;;;;;0.10;0.10;;;;;;;;;;5095054;28;20036;-86
2024/03/13 06:32:00;;;;;;;0.10;0.10;;;;;;;;;;5096997;28;20047;-87
2024/03/13 06:34:27;;;;;;;0.10;0.10;;;;;;;;;;5077953;28;20399;-87
2024/03/13 06:36:53;;;;;;;0.10;0.10;;;;;;;;;;5077397;28;20046;-86
2024/03/13 06:39:21;;;;;;;0.17;0.17;;;;;;;;;;5094107;28;20032;-87
2024/03/13 06:41:50;;;;;;;0.10;0.10;;;;;;;;;;5093829;28;20039;-86
2024/03/13 06:44:17;;;;;;;0.93;0.57;;;;;;;;;;5077885;28;20546;-88
2024/03/13 06:46:43;;;;;;;0.10;0.10;;;;;;;;;;5077452;28;20048;-84
2024/03/13 06:49:09;;;;;;;0.63;0.63;;;;;;;;;;5077013;28;20044;-83
2024/03/13 06:51:35;;;;;;;0.10;0.10;;;;;;;;;;5077179;28;20045;-86
2024/03/13 06:54:01;;;;;;;0.10;0.10;;;;;;;;;;5094367;28;20405;-84
2024/03/13 06:56:27;;;;;;;0.10;0.10;;;;;;;;;;5094057;28;20044;-84
2024/03/13 06:58:55;;;;;;;0.20;0.20;;;;;;;;;;5094119;28;20040;-83
2024/03/13 07:01:21;;;;;;;0.10;0.10;;;;;;;;;;5094037;28;20391;-82
2024/03/13 07:03:47;;;;;;;0.17;0.17;;;;;;;;;;5076955;28;20052;-82
2024/03/13 07:06:14;;;;;;;0.30;0.30;;;;;;;;;;5077161;28;20126;-83
2024/03/13 07:08:41;;;;;;;0.10;0.10;;;;;;;;;;5077142;28;20501;-84
2024/03/13 07:11:07;;;;;;;0.10;0.10;;;;;;;;;;5093695;28;20074;-84
2024/03/13 07:13:33;;;;;;;0.40;0.40;;;;;;;;;;5093781;28;20047;-85
2024/03/13 07:16:02;;;;;;;0.10;0.10;;;;;;;;;;5077412;28;20071;-84
2024/03/13 07:18:28;;;;;;;0.10;0.10;;;;;;;;;;5094387;28;20064;-84
2024/03/13 07:20:57;;;;;;;0.40;0.40;;;;;;;;;;5097435;28;20043;-84
2024/03/13 07:23:23;;;;;;;0.30;0.30;;;;;;;;;;5097317;28;20092;-84
2024/03/13 07:25:56;;;;;;;0.10;0.10;;;;;;;;;;5080514;28;20475;-83
2024/03/13 07:28:22;;;;;;;0.10;0.10;;;;;;;;;;5081553;28;20036;-84
2024/03/13 07:30:49;;;;;;;0.52;0.28;;;;;;;;;;5080515;28;20043;-85
2024/03/13 07:33:15;;;;;;;0.13;0.13;;;;;;;;;;5114164;28;20047;-84
2024/03/13 07:35:41;;;;;;;0.15;0.15;;;;;;;;;;5097054;28;20039;-83
2024/03/13 07:38:10;;;;;;;0.10;0.10;;;;;;;;;;5113909;28;20045;-83
2024/03/13 07:40:39;;;;;;;0.52;0.52;;;;;;;;;;5097367;28;20044;-83
2024/03/13 07:43:09;;;;;;;0.20;0.20;;;;;;;;;;5078569;28;20046;-83
2024/03/13 07:45:39;;;;;;;0.10;0.10;;;;;;;;;;5096763;28;20043;-84
2024/03/13 07:48:08;;;;;;;0.10;0.10;;;;;;;;;;5096568;28;20040;-85
2024/03/13 07:50:38;;;;;;;0.10;0.10;;;;;;;;;;5095814;28;20054;-84
2024/03/13 07:53:08;;;;;;;0.10;0.10;;;;;;;;;;5113545;28;20136;-83
2024/03/13 07:55:37;;;;;;;0.10;0.10;;;;;;;;;;5112939;28;20043;-84
2024/03/13 07:58:03;;;;;;;0.10;0.10;;;;;;;;;;5113203;28;20085;-82
2024/03/13 08:00:29;;;;;;;0.10;0.10;;;;;;;;;;5096907;28;20039;-86
2024/03/13 08:02:56;;;;;;;0.38;0.35;;;;;;;;;;5096644;28;20051;-85
2024/03/13 08:05:22;;;;;;;0.10;0.10;;;;;;;;;;5080872;28;20040;-86
2024/03/13 08:07:49;;;;;;;0.13;0.13;;;;;;;;;;5097087;28;20043;-87
2024/03/13 08:10:25;;;;;;;0.10;0.10;;;;;;;;;;5116296;28;20140;-88
2024/03/13 08:12:52;;;;;;;0.10;0.10;;;;;;;;;;5084069;28;20364;-87
2024/03/13 08:15:18;;;;;;;0.10;0.10;;;;;;;;;;5112960;28;20054;-86
2024/03/13 08:17:45;;;;;;;0.20;0.20;;;;;;;;;;5079280;28;20047;-85
2024/03/13 08:20:13;;;;;;;0.35;0.35;;;;;;;;;;5079355;28;20085;-86
2024/03/13 08:22:42;;;;;;;0.10;0.10;;;;;;;;;;5096852;28;20136;-86
2024/03/13 08:25:09;;;;;;;0.10;0.10;;;;;;;;;;5096356;28;20044;-85
2024/03/13 08:27:35;;;;;;;0.10;0.10;;;;;;;;;;5095586;28;20036;-86
2024/03/13 08:30:02;;;;;;;0.35;0.35;;;;;;;;;;5079267;28;20429;-85
2024/03/13 08:32:28;;;;;;;0.10;0.10;;;;;;;;;;5096010;28;20167;-84
2024/03/13 08:34:54;;;;;;;0.10;0.10;;;;;;;;;;5079216;28;20039;-84
2024/03/13 08:37:20;;;;;;;0.10;0.10;;;;;;;;;;5078636;28;20039;-85
2024/03/13 08:39:46;;;;;;;0.10;0.10;;;;;;;;;;5078781;28;20035;-85
2024/03/13 08:42:13;;;;;;;0.68;0.68;;;;;;;;;;5112502;28;20096;-86
2024/03/13 08:44:39;;;;;;;0.10;0.10;;;;;;;;;;5095586;28;20057;-85
2024/03/13 08:47:06;;;;;;;0.10;0.10;;;;;;;;;;5112711;28;20070;-86
2024/03/13 08:49:33;;;;;;;0.10;0.10;;;;;;;;;;5095573;28;20107;-85
2024/03/13 08:51:59;;;;;;;0.10;0.10;;;;;;;;;;5095348;28;20072;-86
2024/03/13 08:54:25;;;;;;;0.10;0.10;;;;;;;;;;5095611;28;20122;-86
2024/03/13 08:56:51;;;;;;;0.10;0.10;;;;;;;;;;5095183;28;20178;-85
2024/03/13 08:59:17;;;;;;;0.10;0.10;;;;;;;;;;5095232;28;20093;-85
2024/03/13 09:01:44;;;;;;;0.10;0.10;;;;;;;;;;5095257;28;20038;-85
2024/03/13 09:04:10;;;;;;;0.32;0.32;;;;;;;;;;5095417;28;20367;-86
2024/03/13 09:06:36;;;;;;;4.00;0.30;;;;;;;;;;5094989;28;20259;-86
2024/03/13 09:09:06;;;;;;;0.10;0.10;;;;;;;;;;5096794;28;20054;-94
2024/03/13 09:11:33;;;;;;;0.10;0.10;;;;;;;;;;5080671;28;20086;-93
2024/03/13 09:14:03;;;;;;;0.10;0.10;;;;;;;;;;5079190;28;20513;-86
2024/03/13 09:16:33;;;;;;;0.10;0.10;;;;;;;;;;5078624;28;20043;-86
2024/03/13 09:18:59;;;;;;;0.10;0.10;;;;;;;;;;5111934;28;20553;-86
2024/03/13 09:21:26;;;;;;;0.10;0.10;;;;;;;;;;5078157;28;20092;-86
2024/03/13 09:23:52;;;;;;;0.20;0.20;;;;;;;;;;5078147;28;20092;-85
2024/03/13 09:26:18;;;;;;;0.10;0.10;;;;;;;;;;5094925;28;20043;-84
2024/03/13 09:28:47;;;;;;;0.10;0.10;;;;;;;;;;5078051;28;20079;-85
2024/03/13 09:31:13;;;;;;;0.30;0.30;;;;;;;;;;5077822;28;20116;-84
2024/03/13 09:33:40;;;;;;;0.10;0.10;;;;;;;;;;5094790;28;20040;-84
2024/03/13 09:36:15;;;;;;;0.10;0.10;;;;;;;;;;5095187;28;20040;-82
2024/03/13 09:38:41;;;;;;;0.10;0.10;;;;;;;;;;5111981;28;20063;-84
2024/03/13 09:41:07;;;;;;;0.10;0.10;;;;;;;;;;5077431;28;20059;-84
2024/03/13 09:43:33;;;;;;;0.10;0.10;;;;;;;;;;5111580;28;20443;-84
2024/03/13 09:46:02;;;;;;;0.10;0.10;;;;;;;;;;5094760;28;20042;-82
2024/03/13 09:48:28;;;;;;;0.10;0.10;;;;;;;;;;5095474;28;20452;-84
2024/03/13 09:50:56;;;;;;;0.10;0.10;;;;;;;;;;5094684;28;20047;-84
2024/03/13 09:53:22;;;;;;;0.10;0.10;;;;;;;;;;5078154;28;20416;-84
2024/03/13 09:55:48;;;;;;;0.10;0.10;;;;;;;;;;5094643;28;20043;-84
2024/03/13 09:58:15;;;;;;;0.10;0.10;;;;;;;;;;5094642;28;20403;-84
2024/03/13 10:00:44;;;;;;;0.15;0.15;;;;;;;;;;5078009;28;20309;-84
2024/03/13 10:03:23;;;;;;;0.10;0.10;;;;;;;;;;5094312;28;20131;-83
2024/03/13 10:05:54;;;;;;;0.10;0.10;;;;;;;;;;5111611;28;20071;-85
2024/03/13 10:08:20;;;;;;;0.10;0.10;;;;;;;;;;5077909;28;20066;-84
2024/03/13 10:10:46;;;;;;;0.10;0.10;;;;;;;;;;5077771;28;20047;-84
2024/03/13 10:13:13;;;;;;;0.10;0.10;;;;;;;;;;5094777;28;20051;-84
2024/03/13 10:15:39;;;;;;;0.10;0.10;;;;;;;;;;5094717;28;20493;-85
2024/03/13 10:18:08;;;;;;;0.10;0.10;;;;;;;;;;5094522;28;20040;-85
2024/03/13 10:20:40;;;;;;;0.10;0.10;;;;;;;;;;5079184;28;20106;-85
2024/03/13 10:23:06;;;;;;;0.10;0.10;;;;;;;;;;5111369;28;20092;-89
2024/03/13 10:25:35;;;;;;;0.10;0.10;;;;;;;;;;5094160;28;20163;-84
2024/03/13 10:28:01;;;;;;;0.10;0.10;;;;;;;;;;5078107;28;20047;-84
2024/03/13 10:30:27;;;;;;;0.10;0.10;;;;;;;;;;5094199;28;20049;-84
2024/03/13 10:32:54;;;;;;;0.10;0.10;;;;;;;;;;5094004;28;20054;-83
2024/03/13 10:35:20;;;;;;;0.10;0.10;;;;;;;;;;5077323;28;20151;-84
2024/03/13 10:37:46;;;;;;;0.10;0.10;;;;;;;;;;5094125;28;20047;-84
2024/03/13 10:40:14;;;;;;;0.10;0.10;;;;;;;;;;5110866;28;20148;-84
2024/03/13 10:42:42;;;;;;;0.10;0.10;;;;;;;;;;5077509;28;20036;-86
2024/03/13 10:45:10;;;;;;;0.10;0.10;;;;;;;;;;5111136;28;20051;-89
2024/03/13 10:47:36;;;;;;;0.10;0.10;;;;;;;;;;5094397;28;20073;-87
2024/03/13 10:50:03;;;;;;;0.10;0.10;;;;;;;;;;5077052;28;20522;-86
2024/03/13 10:52:29;;;;;;;0.30;0.30;;;;;;;;;;5077262;28;20071;-84
2024/03/13 10:54:55;;;;;;;0.10;0.10;;;;;;;;;;5081151;28;20040;-85
2024/03/13 10:57:21;;;;;;;0.10;0.10;;;;;;;;;;5097823;28;20051;-86
2024/03/13 10:59:48;;;;;;;0.10;0.10;;;;;;;;;;5080878;28;20395;-85
2024/03/13 11:02:15;;;;;;;0.10;0.10;;;;;;;;;;5080895;28;20052;-86
2024/03/13 11:04:41;;;;;;;0.10;0.10;;;;;;;;;;5114728;28;20184;-84
2024/03/13 11:07:13;;;;;;;0.20;0.20;;;;;;;;;;5097806;28;20054;-86
2024/03/13 11:09:39;;;;;;;;;;;;;;;;;;5099935;28;20039;-89
2024/03/13 11:12:10;;;;;;;0.10;0.10;;;;;;;;;;5097804;28;19922;-87
2024/03/13 11:14:36;;;;;;;0.10;0.10;;;;;;;;;;5098114;28;20075;-87
2024/03/13 11:17:03;;;;;;;0.10;0.10;;;;;;;;;;5097635;28;20115;-87
2024/03/13 11:19:32;;;;;;;0.10;0.10;;;;;;;;;;5097936;28;20039;-85
2024/03/13 11:21:59;;;;;;;0.10;0.10;;;;;;;;;;5096723;28;20081;-86
2024/03/13 11:24:26;;;;;;;0.10;0.10;;;;;;;;;;5080517;28;20164;-86
2024/03/13 11:26:52;;;;;;;0.30;0.30;;;;;;;;;;5097115;28;20516;-86
2024/03/13 11:29:18;;;;;;;0.20;0.20;;;;;;;;;;5096963;28;20156;-87
2024/03/13 11:31:48;;;;;;;0.10;0.10;;;;;;;;;;5080055;28;20096;-87
2024/03/13 11:34:17;;;;;;;0.10;0.10;;;;;;;;;;5080821;28;20092;-85
2024/03/13 11:36:44;;;;;;;0.10;0.10;;;;;;;;;;5114135;28;20094;-87
2024/03/13 11:39:16;;;;;;;0.10;0.10;;;;;;;;;;5097549;28;20196;-88
2024/03/13 11:41:45;;;;;;;0.10;0.10;;;;;;;;;;5080874;28;20040;-88
2024/03/13 11:44:20;;;;;;;0.10;0.10;;;;;;;;;;5080464;28;20035;-87
2024/03/13 11:46:48;;;;;;;0.30;0.30;;;;;;;;;;5096580;28;20047;-88
2024/03/13 11:49:15;;;;;;;0.20;0.20;;;;;;;;;;5096746;28;20039;-86
2024/03/13 11:52:00;;;;;;;0.20;0.20;;;;;;;;;;5096750;28;20035;-87
2024/03/13 11:54:32;;;;;;;0.10;0.10;;;;;;;;;;5096366;28;20044;-87
2024/03/13 11:57:05;;;;;;;0.10;0.10;;;;;;;;;;5079966;28;20050;-86
2024/03/13 11:59:58;;;;;;;0.35;0.35;;;;;;;;;;5096321;28;20044;-87
2024/03/13 12:02:27;;;;;;;0.10;0.10;;;;;;;;;;5110596;28;20043;-87
2024/03/13 12:04:54;;;;;;;0.10;0.10;;;;;;;;;;5095597;28;20040;-87
2024/03/13 12:07:20;;;;;;;0.15;0.15;;;;;;;;;;5113329;28;20077;-87
2024/03/13 12:09:47;;;;;;;0.40;0.30;;;;;;;;;;5113443;28;20039;-86
2024/03/13 12:12:13;;;;;;;0.20;0.20;;;;;;;;;;5096216;28;20058;-86
2024/03/13 12:14:43;;;;;;;0.10;0.10;;;;;;;;;;5079713;28;20105;-87
2024/03/13 12:17:10;;;;;;;0.10;0.10;;;;;;;;;;5096089;28;20096;-87
2024/03/13 12:19:37;;;;;;;0.10;0.10;;;;;;;;;;5096385;28;20035;-87
2024/03/13 12:22:03;;;;;;;0.10;0.10;;;;;;;;;;5112733;28;20035;-86
2024/03/13 12:24:29;;;;;;;0.17;0.17;;;;;;;;;;5096113;28;20040;-86
2024/03/13 12:26:56;;;;;;;0.10;0.10;;;;;;;;;;5078945;28;20039;-86
2024/03/13 12:29:22;;;;;;;0.10;0.10;;;;;;;;;;5096064;28;20043;-86
2024/03/13 12:31:50;;;;;;;0.10;0.10;;;;;;;;;;5078983;28;20075;-86
2024/03/13 12:34:18;;;;;;;0.20;0.20;;;;;;;;;;5112870;28;20075;-87
2024/03/13 12:36:44;;;;;;;0.13;0.13;;;;;;;;;;5095968;28;20046;-85
2024/03/13 12:39:10;;;;;;;0.10;0.10;;;;;;;;;;5079203;28;20050;-88
2024/03/13 12:41:37;;;;;;;0.10;0.10;;;;;;;;;;5096092;28;20407;-86
2024/03/13 12:44:03;;;;;;;0.10;0.10;;;;;;;;;;5112369;28;20131;-86
2024/03/13 12:46:30;;;;;;;0.20;0.20;;;;;;;;;;5095666;28;20035;-86
2024/03/13 12:48:56;;;;;;;0.30;0.30;;;;;;;;;;5112378;28;20036;-86
2024/03/13 12:51:22;;;;;;;0.10;0.10;;;;;;;;;;5095484;28;20391;-86
2024/03/13 12:53:48;;;;;;;0.10;0.10;;;;;;;;;;5095600;28;20031;-86
2024/03/13 12:56:15;;;;;;;0.10;0.10;;;;;;;;;;5095464;28;20036;-87
2024/03/13 12:58:42;;;;;;;0.30;0.30;;;;;;;;;;5112869;28;20043;-89
2024/03/13 13:01:08;;;;;;;0.30;0.30;;;;;;;;;;5079337;28;20039;-90
2024/03/13 13:03:35;;;;;;;0.10;0.10;;;;;;;;;;5096355;28;20050;-92
2024/03/13 13:06:02;;;;;;;0.20;0.20;;;;;;;;;;5080807;28;20043;-94
2024/03/13 13:08:29;;;;;;;0.10;0.10;;;;;;;;;;5097183;28;20047;-93
2024/03/13 13:10:57;;;;;;;0.28;0.28;;;;;;;;;;5079986;28;20047;-94
2024/03/13 13:13:23;;;;;;;0.10;0.10;;;;;;;;;;5080861;28;20395;-92
2024/03/13 13:15:52;;;;;;;0.10;0.10;;;;;;;;;;5079956;28;20036;-94
2024/03/13 13:18:18;;;;;;;0.63;0.30;;;;;;;;;;5096236;28;20043;-92
2024/03/13 13:20:44;;;;;;;0.10;0.10;;;;;;;;;;5079872;28;20047;-91
2024/03/13 13:23:12;;;;;;;0.10;0.10;;;;;;;;;;5080263;28;20080;-90
2024/03/13 13:25:38;;;;;;;0.10;0.10;;;;;;;;;;5080658;28;20122;-92
2024/03/13 13:28:05;;;;;;;0.20;0.20;;;;;;;;;;5097531;28;20046;-91
2024/03/13 13:30:35;;;;;;;0.10;0.10;;;;;;;;;;5096864;28;20092;-89
2024/03/13 13:33:03;;;;;;;0.10;0.10;;;;;;;;;;5080945;28;20467;-88
2024/03/13 13:35:29;;;;;;;0.10;0.10;;;;;;;;;;5081273;28;20058;-90
2024/03/13 13:37:55;;;;;;;0.10;0.10;;;;;;;;;;5085163;28;20036;-90
2024/03/13 13:40:23;;;;;;;0.25;0.25;;;;;;;;;;5111722;28;20124;-90
2024/03/13 13:42:52;;;;;;;0.10;0.10;;;;;;;;;;5096692;28;20110;-91
2024/03/13 13:45:19;;;;;;;0.10;0.10;;;;;;;;;;5083330;28;20039;-91
2024/03/13 13:47:46;;;;;;;0.10;0.10;;;;;;;;;;5079717;28;20046;-91
2024/03/13 13:50:14;;;;;;;0.20;0.20;;;;;;;;;;5096256;28;20126;-92
2024/03/13 13:52:44;;;;;;;0.30;0.20;;;;;;;;;;5079166;28;20050;-92
2024/03/13 13:55:12;;;;;;;0.10;0.10;;;;;;;;;;5079151;28;20039;-91
2024/03/13 13:57:38;;;;;;;0.10;0.10;;;;;;;;;;5078959;28;20059;-92
2024/03/13 14:00:09;;;;;;;0.17;0.17;;;;;;;;;;5095604;28;20040;-91
2024/03/13 14:02:35;;;;;;;0.17;0.17;;;;;;;;;;5078995;28;20058;-94
2024/03/13 14:05:01;;;;;;;0.17;0.17;;;;;;;;;;5094931;28;20122;-88
2024/03/13 14:07:29;;;;;;;0.10;0.10;;;;;;;;;;5111422;28;20075;-88
2024/03/13 14:09:55;;;;;;;0.10;0.10;;;;;;;;;;5077562;28;20126;-88
2024/03/13 14:12:32;;;;;;;0.20;0.20;;;;;;;;;;5094285;28;20070;-88
2024/03/13 14:14:58;;;;;;;0.10;0.10;;;;;;;;;;5079322;28;20043;-87
2024/03/13 14:17:27;;;;;;;0.10;0.10;;;;;;;;;;5077270;28;20046;-86
2024/03/13 14:19:53;;;;;;;0.77;0.57;;;;;;;;;;5077727;28;20031;-87
2024/03/13 14:22:20;;;;;;;0.10;0.10;;;;;;;;;;5077664;28;20423;-87
2024/03/13 14:24:46;;;;;;;0.20;0.20;;;;;;;;;;5094797;28;20508;-86
2024/03/13 14:27:12;;;;;;;0.10;0.10;;;;;;;;;;5077420;28;20047;-87
2024/03/13 14:29:38;;;;;;;0.10;0.10;;;;;;;;;;5081222;28;20040;-87
2024/03/13 14:32:08;;;;;;;0.15;0.15;;;;;;;;;;5098294;28;20047;-86
2024/03/13 14:34:38;;;;;;;0.20;0.20;;;;;;;;;;5081909;28;20043;-86
2024/03/13 14:37:05;;;;;;;0.10;0.10;;;;;;;;;;5098712;28;20065;-86
2024/03/13 14:39:32;;;;;;;0.45;0.22;;;;;;;;;;5081337;28;20416;-85
2024/03/13 14:41:58;;;;;;;0.20;0.20;;;;;;;;;;5081465;28;20118;-86
2024/03/13 14:44:24;;;;;;;0.13;0.13;;;;;;;;;;5098290;28;20040;-88
2024/03/13 14:46:50;;;;;;;0.10;0.10;;;;;;;;;;5098071;28;20367;-88
2024/03/13 14:49:18;;;;;;;0.10;0.10;;;;;;;;;;5081373;28;20104;-88
2024/03/13 14:51:44;;;;;;;0.10;0.10;;;;;;;;;;5081679;28;20101;-88
2024/03/13 14:54:11;;;;;;;0.20;0.20;;;;;;;;;;5097927;28;20042;-86
2024/03/13 14:56:37;;;;;;;0.10;0.10;;;;;;;;;;5080870;28;20039;-88
2024/03/13 14:59:04;;;;;;;0.30;0.30;;;;;;;;;;5080979;28;20067;-88
2024/03/13 15:01:30;;;;;;;0.20;0.20;;;;;;;;;;5084513;28;20042;-91
2024/03/13 15:04:00;;;;;;;0.13;0.13;;;;;;;;;;5099892;28;20071;-86